Terminal Aerodrome Forecast
Issued by NWS

Home | Current Version | Previous Version | Text Only | Print | Product List | Glossary On
Versions: 1 2 3 4 5 6 7 8 9 10 11 12 13 14 15 16 17
778
FTAK31 PAJN 192339
TAFAJN
TAF
PAJN 192339Z 2000/2024 11012G20KT P6SM -SHRA FEW007 BKN035 OVC040
      TEMPO 2000/2003 5SM -SHRA BR SCT015 BKN025 OVC040
     FM200300 11012KT P6SM -SHRA SCT015 OVC030
     FM201600 11008KT P6SM VCSH SCT015 OVC040
     FM202100 10008KT P6SM SCT015 OVC030=

USA.gov is the U.S. government's official web portal to all federal, state and local government web resources and services.